Time,TemperatureF,DewpointF,PressureIn,WindDirection,WindDirectionDegrees,WindSpeedMPH,WindSpeedGustMPH,Humidity,HourlyPrecipIn,Conditions,Clouds,dailyrainin,SoftwareType,DateUTC
2013-04-07 00:11:00,38.0,33.0,29.73,NW,307,0.0,-999.0,82,-99.99,,,0.13,weatherlink.com 1.10,2013-04-07 05:11:00,
2013-04-07 00:26:00,37.9,33.0,29.73,WNW,299,2.0,-999.0,83,-99.99,,,0.13,weatherlink.com 1.10,2013-04-07 05:26:00,
2013-04-07 00:41:00,37.8,33.0,29.74,NW,323,2.0,-999.0,84,-99.99,,,0.13,weatherlink.com 1.10,2013-04-07 05:41:00,
2013-04-07 00:56:00,37.5,33.0,29.74,NW,311,3.0,-999.0,85,-99.99,,,0.13,weatherlink.com 1.10,2013-04-07 05:56:00,
2013-04-07 03:03:00,36.3,32.0,29.76,ENE,62,0.0,-999.0,85,-99.99,,,0.00,weatherlink.com 1.10,2013-04-07 08:03:00,
2013-04-07 03:40:00,35.8,31.0,29.78,WSW,250,0.0,-999.0,84,-99.99,,,0.00,weatherlink.com 1.10,2013-04-07 08:40:00,
2013-04-07 03:55:00,35.8,31.0,29.78,WNW,301,0.0,-999.0,84,-99.99,,,0.00,weatherlink.com 1.10,2013-04-07 08:55:00,
2013-04-07 04:10:00,35.6,32.0,29.79,West,263,3.0,-999.0,85,-99.99,,,0.00,weatherlink.com 1.10,2013-04-07 09:10:00,
2013-04-07 04:25:00,35.3,31.0,29.80,NW,317,1.0,-999.0,85,-99.99,,,0.00,weatherlink.com 1.10,2013-04-07 09:25:00,
2013-04-07 04:40:00,35.5,31.0,29.81,NW,316,0.0,-999.0,83,-99.99,,,0.00,weatherlink.com 1.10,2013-04-07 09:40:00,
2013-04-07 04:55:00,35.6,31.0,29.81,NNW,336,0.0,-999.0,83,-99.99,,,0.00,weatherlink.com 1.10,2013-04-07 09:55:00,
2013-04-07 05:10:00,35.5,31.0,29.82,NW,318,0.0,-999.0,83,-99.99,,,0.00,weatherlink.com 1.10,2013-04-07 10:10:00,
2013-04-07 05:40:00,34.9,31.0,29.83,NW,314,2.0,-999.0,86,-99.99,,,0.00,weatherlink.com 1.10,2013-04-07 10:40:00,
2013-04-07 05:55:00,35.2,31.0,29.84,WNW,283,1.0,-999.0,84,-99.99,,,0.00,weatherlink.com 1.10,2013-04-07 10:55:00,
2013-04-07 06:10:00,35.3,31.0,29.84,WNW,282,2.0,-999.0,84,-99.99,,,0.00,weatherlink.com 1.10,2013-04-07 11:10:00,
2013-04-07 06:25:00,35.3,31.0,29.85,WNW,283,1.0,-999.0,84,-99.99,,,0.00,weatherlink.com 1.10,2013-04-07 11:25:00,
2013-04-07 06:40:00,35.3,31.0,29.86,WNW,282,0.0,-999.0,84,-99.99,,,0.00,weatherlink.com 1.10,2013-04-07 11:40:00,
2013-04-07 06:56:00,35.2,31.0,29.86,WNW,282,0.0,-999.0,84,-99.99,,,0.00,weatherlink.com 1.10,2013-04-07 11:56:00,
2013-04-07 07:10:00,35.3,31.0,29.86,WNW,282,0.0,-999.0,84,-99.99,,,0.00,weatherlink.com 1.10,2013-04-07 12:10:00,
2013-04-07 07:25:00,35.3,31.0,29.86,WNW,282,0.0,-999.0,83,-99.99,,,0.00,weatherlink.com 1.10,2013-04-07 12:25:00,
2013-04-07 07:41:00,35.5,31.0,29.87,WNW,282,0.0,-999.0,83,-99.99,,,0.00,weatherlink.com 1.10,2013-04-07 12:41:00,
2013-04-07 07:56:00,35.6,31.0,29.87,WNW,283,0.0,-999.0,82,-99.99,,,0.00,weatherlink.com 1.10,2013-04-07 12:56:00,
2013-04-07 08:11:00,35.8,31.0,29.87,WNW,283,0.0,-999.0,82,-99.99,,,0.00,weatherlink.com 1.10,2013-04-07 13:11:00,
2013-04-07 08:26:00,35.9,31.0,29.89,WNW,283,1.0,-999.0,81,-99.99,,,0.00,weatherlink.com 1.10,2013-04-07 13:26:00,
2013-04-07 08:41:00,36.0,30.0,29.89,WNW,282,0.0,-999.0,80,-99.99,,,0.00,weatherlink.com 1.10,2013-04-07 13:41:00,
2013-04-07 08:56:00,36.2,31.0,29.89,WNW,293,2.0,-999.0,81,-99.99,,,0.00,weatherlink.com 1.10,2013-04-07 13:56:00,
2013-04-07 09:11:00,36.3,31.0,29.89,WNW,292,1.0,-999.0,80,-99.99,,,0.00,weatherlink.com 1.10,2013-04-07 14:11:00,
2013-04-07 09:26:00,36.5,31.0,29.89,WNW,286,2.0,-999.0,80,-99.99,,,0.00,weatherlink.com 1.10,2013-04-07 14:26:00,
2013-04-07 09:41:00,36.8,31.0,29.89,West,276,0.0,-999.0,79,-99.99,,,0.00,weatherlink.com 1.10,2013-04-07 14:41:00,
2013-04-07 09:56:00,37.2,31.0,29.89,West,276,0.0,-999.0,79,-99.99,,,0.00,weatherlink.com 1.10,2013-04-07 14:56:00,
2013-04-07 10:11:00,37.3,31.0,29.90,WSW,249,3.0,-999.0,77,-99.99,,,0.00,weatherlink.com 1.10,2013-04-07 15:11:00,
2013-04-07 10:26:00,37.3,31.0,29.91,South,187,0.0,-999.0,77,-99.99,,,0.00,weatherlink.com 1.10,2013-04-07 15:26:00,
2013-04-07 10:41:00,37.5,30.0,29.91,SSW,195,2.0,-999.0,75,-99.99,,,0.00,weatherlink.com 1.10,2013-04-07 15:41:00,
2013-04-07 10:56:00,38.0,31.0,29.92,SSW,197,4.0,-999.0,76,-99.99,,,0.00,weatherlink.com 1.10,2013-04-07 15:56:00,
2013-04-07 11:11:00,38.2,31.0,29.92,SSW,197,3.0,-999.0,74,-99.99,,,0.00,weatherlink.com 1.10,2013-04-07 16:11:00,
2013-04-07 11:26:00,37.9,30.0,29.93,WSW,248,3.0,-999.0,74,-99.99,,,0.00,weatherlink.com 1.10,2013-04-07 16:26:00,
2013-04-07 11:41:00,38.2,31.0,29.93,SW,229,0.0,-999.0,75,-99.99,,,0.00,weatherlink.com 1.10,2013-04-07 16:41:00,
2013-04-07 11:56:00,38.8,31.0,29.93,SSW,198,4.0,-999.0,73,-99.99,,,0.00,weatherlink.com 1.10,2013-04-07 16:56:00,
2013-04-07 12:11:00,39.1,31.0,29.92,SSW,198,0.0,-999.0,72,-99.99,,,0.00,weatherlink.com 1.10,2013-04-07 17:11:00,
2013-04-07 12:26:00,39.6,32.0,29.91,SSW,198,3.0,-999.0,73,-99.99,,,0.00,weatherlink.com 1.10,2013-04-07 17:26:00,
2013-04-07 12:41:00,39.9,32.0,29.90,SSW,198,2.0,-999.0,72,-99.99,,,0.00,weatherlink.com 1.10,2013-04-07 17:41:00,
2013-04-07 12:56:00,39.9,32.0,29.91,South,172,0.0,-999.0,72,-99.99,,,0.00,weatherlink.com 1.10,2013-04-07 17:56:00,
2013-04-07 13:11:00,40.6,32.0,29.90,South,170,6.0,-999.0,71,-99.99,,,0.00,weatherlink.com 1.10,2013-04-07 18:11:00,
2013-04-07 13:26:00,40.9,32.0,29.90,SSE,158,3.0,-999.0,71,-99.99,,,0.00,weatherlink.com 1.10,2013-04-07 18:26:00,
2013-04-07 13:41:00,40.8,32.0,29.89,SW,216,6.0,-999.0,70,-99.99,,,0.00,weatherlink.com 1.10,2013-04-07 18:41:00,
2013-04-07 13:56:00,41.2,33.0,29.89,SSE,150,3.0,-999.0,72,-99.99,,,0.00,weatherlink.com 1.10,2013-04-07 18:56:00,
2013-04-07 14:11:00,42.6,33.0,29.89,South,185,4.0,-999.0,68,-99.99,,,0.00,weatherlink.com 1.10,2013-04-07 19:11:00,
2013-04-07 14:26:00,43.1,33.0,29.88,SSE,147,3.0,-999.0,68,-99.99,,,0.00,weatherlink.com 1.10,2013-04-07 19:26:00,
2013-04-07 14:41:00,42.8,33.0,29.87,SSE,151,2.0,-999.0,68,-99.99,,,0.00,weatherlink.com 1.10,2013-04-07 19:41:00,
2013-04-07 14:56:00,42.9,33.0,29.86,SSE,149,0.0,-999.0,68,-99.99,,,0.00,weatherlink.com 1.10,2013-04-07 19:56:00,
2013-04-07 15:11:00,43.8,33.0,29.85,ESE,113,6.0,-999.0,66,-99.99,,,0.00,weatherlink.com 1.10,2013-04-07 20:11:00,
2013-04-07 15:26:00,44.9,34.0,29.85,SSW,205,0.0,-999.0,65,-99.99,,,0.00,weatherlink.com 1.10,2013-04-07 20:26:00,
2013-04-07 15:41:00,46.0,33.0,29.84,ESE,122,0.0,-999.0,62,-99.99,,,0.00,weatherlink.com 1.10,2013-04-07 20:41:00,
2013-04-07 15:56:00,46.2,34.0,29.83,South,181,0.0,-999.0,63,-99.99,,,0.00,weatherlink.com 1.10,2013-04-07 20:56:00,
2013-04-07 16:11:00,46.4,34.0,29.82,ESE,108,8.0,-999.0,62,-99.99,,,0.00,weatherlink.com 1.10,2013-04-07 21:11:00,
2013-04-07 16:26:00,46.2,35.0,29.81,ESE,103,7.0,-999.0,64,-99.99,,,0.00,weatherlink.com 1.10,2013-04-07 21:26:00,
2013-04-07 16:41:00,46.7,35.0,29.81,ESE,115,5.0,-999.0,64,-99.99,,,0.00,weatherlink.com 1.10,2013-04-07 21:41:00,
2013-04-07 16:56:00,46.8,35.0,29.81,SE,128,3.0,-999.0,64,-99.99,,,0.00,weatherlink.com 1.10,2013-04-07 21:56:00,
2013-04-07 17:11:00,46.7,36.0,29.82,ESE,111,4.0,-999.0,66,-99.99,,,0.00,weatherlink.com 1.10,2013-04-07 22:11:00,
2013-04-07 17:26:00,47.3,36.0,29.80,SE,145,4.0,-999.0,65,-99.99,,,0.00,weatherlink.com 1.10,2013-04-07 22:26:00,
2013-04-07 17:41:00,47.4,36.0,29.81,SSE,156,3.0,-999.0,66,-99.99,,,0.00,weatherlink.com 1.10,2013-04-07 22:41:00,
2013-04-07 18:11:00,47.3,37.0,29.81,SSE,151,4.0,-999.0,67,-99.99,,,0.00,weatherlink.com 1.10,2013-04-07 23:11:00,
2013-04-07 18:26:00,47.3,37.0,29.81,SE,138,0.0,-999.0,68,-99.99,,,0.00,weatherlink.com 1.10,2013-04-07 23:26:00,
2013-04-07 18:41:00,47.1,37.0,29.81,East,97,0.0,-999.0,69,-99.99,,,0.00,weatherlink.com 1.10,2013-04-07 23:41:00,
2013-04-07 18:56:00,47.1,38.0,29.80,East,96,3.0,-999.0,70,-99.99,,,0.00,weatherlink.com 1.10,2013-04-07 23:56:00,
2013-04-07 19:26:00,46.7,38.0,29.80,East,96,0.0,-999.0,71,-99.99,,,0.00,weatherlink.com 1.10,2013-04-08 00:26:00,
2013-04-07 19:41:00,46.4,38.0,29.80,East,96,2.0,-999.0,73,-99.99,,,0.00,weatherlink.com 1.10,2013-04-08 00:41:00,
2013-04-07 19:56:00,46.0,39.0,29.80,East,96,0.0,-999.0,75,-99.99,,,0.00,weatherlink.com 1.10,2013-04-08 00:56:00,
2013-04-07 20:11:00,45.8,39.0,29.80,East,96,0.0,-999.0,77,-99.99,,,0.00,weatherlink.com 1.10,2013-04-08 01:11:00,
2013-04-07 20:26:00,45.5,39.0,29.80,East,96,3.0,-999.0,78,-99.99,,,0.00,weatherlink.com 1.10,2013-04-08 01:26:00,
2013-04-07 20:41:00,45.4,39.0,29.80,ESE,115,6.0,-999.0,78,-99.99,,,0.00,weatherlink.com 1.10,2013-04-08 01:41:00,
2013-04-07 20:56:00,45.2,39.0,29.79,ESE,105,3.0,-999.0,79,-99.99,,,0.00,weatherlink.com 1.10,2013-04-08 01:56:00,
2013-04-07 21:26:00,44.2,39.0,29.79,ESE,113,2.0,-999.0,82,-99.99,,,0.01,weatherlink.com 1.10,2013-04-08 02:26:00,
2013-04-07 21:41:00,43.6,39.0,29.78,ESE,117,6.0,-999.0,83,-99.99,,,0.01,weatherlink.com 1.10,2013-04-08 02:41:00,
2013-04-07 22:41:00,42.6,39.0,29.77,ESE,109,3.0,-999.0,88,-99.99,,,0.05,weatherlink.com 1.10,2013-04-08 03:41:00,
2013-04-07 22:56:00,42.3,39.0,29.76,East,96,5.0,-999.0,89,-99.99,,,0.07,weatherlink.com 1.10,2013-04-08 03:56:00,
2013-04-07 23:11:00,42.2,40.0,29.75,East,82,2.0,-999.0,90,-99.99,,,0.08,weatherlink.com 1.10,2013-04-08 04:11:00,
2013-04-07 23:26:00,42.1,39.0,29.74,East,98,0.0,-999.0,90,-99.99,,,0.08,weatherlink.com 1.10,2013-04-08 04:26:00,
2013-04-07 23:41:00,42.1,40.0,29.74,East,101,4.0,-999.0,91,-99.99,,,0.08,weatherlink.com 1.10,2013-04-08 04:41:00,
2013-04-07 23:56:00,42.2,40.0,29.73,East,97,3.0,-999.0,91,-99.99,,,0.11,weatherlink.com 1.10,2013-04-08 04:56:00,